Marietje Andrea — PBWR — position and weather

sailwx.info

Track history (hours):
 
Tides and Currents Weather Stations Pressure Air Temp Water Temp Dewpoint Dewpoint Depression Visibility Wind Speed Wind Dir Waves Ship Positions

Marietje Andrea

Last reported at 2018-Feb-25 09:10 UTC. Time now 2018-Feb-25 14:09 UTC.
Position N 51°41' E 002°32'.

Length 126 m; draft 5 m.

Type: Cargo ship. MMSI: 246649000.

Date/timePositionNaut miles runAvg speedWind from/ knotsBaromVisibWave heightAir tempDewpointWater temp
2018-Feb-25 09:10N 51°41' E 002°32'212.2
2018-Feb-25 08:59N 51°40' E 002°30'612.1
2018-Feb-25 08:30N 51°35' E 002°24'612.0
2018-Feb-25 07:59N 51°30' E 002°18'611.7
2018-Feb-25 07:30N 51°25' E 002°13'611.7
2018-Feb-25 07:00N 51°21' E 002°08'611.6
2018-Feb-25 06:30N 51°15' E 002°04'611.3
2018-Feb-25 06:01N 51°12' E 001°57'511.0
2018-Feb-25 05:30N 51°09' E 001°50'511.0
2018-Feb-25 05:00N 51°05' E 001°43'510.9
2018-Feb-25 04:30N 51°01' E 001°37'510.5
2018-Feb-25 04:00N 50°57' E 001°32'5 9.9
2018-Feb-25 03:29N 50°53' E 001°27'54 9.4
2018-Feb-24 21:45N 50°24' E 000°16'3 9.3
2018-Feb-24 21:23N 50°23' E 000°11'5 9.5
2018-Feb-24 20:52N 50°21' E 000°03'5 9.3
2018-Feb-24 20:18N 50°20' W 000°04'3 9.2
2018-Feb-24 20:00N 50°19' W 000°09'5 9.2
2018-Feb-24 19:29N 50°18' W 000°16'26 9.7
2018-Feb-24 16:45N 50°10' W 000°55'310.7
2018-Feb-24 16:30N 50°09' W 000°59'511.0
2018-Feb-24 16:00N 50°07' W 001°07'611.3
2018-Feb-24 15:30N 50°06' W 001°16'611.8
2018-Feb-24 15:01N 50°04' W 001°24'612.0
2018-Feb-24 14:30N 50°03' W 001°33'712.4
2018-Feb-24 13:59N 50°01' W 001°43'24111.2
2018-Feb-23 16:23N 47°33' W 006°33'712.0
2018-Feb-23 15:51N 47°27' W 006°37'45411.4
2018-Feb-22 00:02N 40°14' W 009°49'011.4
2018-Feb-22 00:00N 40°14' W 009°49'711.4
2018-Feb-21 23:22N 40°06' W 009°49'411.5
2018-Feb-21 23:00N 40°02' W 009°49'711.4
2018-Feb-21 22:25N 39°55' W 009°49'611.3
2018-Feb-21 21:52N 39°49' W 009°50'411.3
2018-Feb-21 21:30N 39°45' W 009°51'611.5
2018-Feb-21 21:00N 39°39' W 009°51'611.6
2018-Feb-21 20:29N 39°33' W 009°51'1311.6
2018-Feb-21 19:24N 39°21' W 009°51'511.6
2018-Feb-21 19:00N 39°16' W 009°51'611.3
2018-Feb-21 18:30N 39°11' W 009°51'611.4
2018-Feb-21 18:00N 39°05' W 009°51'611.7
2018-Feb-21 17:30N 38°59' W 009°51'611.4
2018-Feb-21 17:00N 38°53' W 009°51'611.5
2018-Feb-21 16:30N 38°48' W 009°51'611.6
2018-Feb-21 16:00N 38°42' W 009°50'611.5
2018-Feb-21 15:30N 38°36' W 009°49'611.3
2018-Feb-21 15:00N 38°31' W 009°47'611.2
2018-Feb-21 14:30N 38°25' W 009°45'611.2
2018-Feb-21 14:00N 38°20' W 009°43'611.0
2018-Feb-21 13:29N 38°14' W 009°41'510.9
2018-Feb-21 12:59N 38°09' W 009°40'611.4
2018-Feb-21 12:30N 38°04' W 009°39'1511.4
2018-Feb-21 11:10N 37°49' W 009°35'3611.5
2018-Feb-21 08:05N 37°14' W 009°24'511.9
2018-Feb-21 07:39N 37°09' W 009°23'212.1
2018-Feb-21 07:30N 37°07' W 009°22'1011.8
2018-Feb-21 06:39N 36°58' W 009°19'19311.5
2018-Feb-20 13:48N 35°60' W 005°30'310.0
2018-Feb-20 13:30N 36°00' W 005°26'5 9.6
2018-Feb-20 13:00N 36°00' W 005°20'21911.9
2018-Feb-19 18:38N 37°14' W 001°04'213.1
2018-Feb-19 18:29N 37°15' W 001°02'713.1
2018-Feb-19 17:57N 37°19' W 000°55'712.9
2018-Feb-19 17:27N 37°24' W 000°49'612.8
2018-Feb-19 17:00N 37°28' W 000°44'912.4
2018-Feb-19 16:18N 37°34' W 000°36'311.3
2018-Feb-19 16:00N 37°36' W 000°33'611.5
2018-Feb-19 15:30N 37°42' W 000°35'612.1
2018-Feb-19 14:59N 37°48' W 000°38'612.5
2018-Feb-19 14:30N 37°54' W 000°40'5 0.1
2018-Feb-18 05:20N 37°58' W 000°41'0 0.0
2018-Feb-17 15:14N 37°58' W 000°41'  
2018-Feb-15 11:02N 37°58' W 000°41'0 0.7
2018-Feb-15 10:53N 37°58' W 000°41'1 2.0
2018-Feb-15 10:30N 37°57' W 000°41'0 0.4
2018-Feb-15 10:00N 37°57' W 000°41'0 0.1
2018-Feb-15 09:30N 37°57' W 000°41'  
Track history (hours):
 
Tides and Currents Weather Stations Pressure Air Temp Water Temp Dewpoint Dewpoint Depression Visibility Wind Speed Wind Dir Waves Ship Positions

Marietje Andrea

Last reported at 2018-Feb-25 09:10 UTC. Time now 2018-Feb-25 14:09 UTC.
Position N 51°41' E 002°32'.

Length 126 m; draft 5 m.

Type: Cargo ship. MMSI: 246649000.

Date/timePositionNaut miles runAvg speedWind from/ knotsBaromVisibWave heightAir tempDewpointWater temp
2018-Feb-25 09:10N 51°41' E 002°32'212.2
2018-Feb-25 08:59N 51°40' E 002°30'612.1
2018-Feb-25 08:30N 51°35' E 002°24'612.0
2018-Feb-25 07:59N 51°30' E 002°18'611.7
2018-Feb-25 07:30N 51°25' E 002°13'611.7
2018-Feb-25 07:00N 51°21' E 002°08'611.6
2018-Feb-25 06:30N 51°15' E 002°04'611.3
2018-Feb-25 06:01N 51°12' E 001°57'511.0
2018-Feb-25 05:30N 51°09' E 001°50'511.0
2018-Feb-25 05:00N 51°05' E 001°43'510.9
2018-Feb-25 04:30N 51°01' E 001°37'510.5
2018-Feb-25 04:00N 50°57' E 001°32'5 9.9
2018-Feb-25 03:29N 50°53' E 001°27'54 9.4
2018-Feb-24 21:45N 50°24' E 000°16'3 9.3
2018-Feb-24 21:23N 50°23' E 000°11'5 9.5
2018-Feb-24 20:52N 50°21' E 000°03'5 9.3
2018-Feb-24 20:18N 50°20' W 000°04'3 9.2
2018-Feb-24 20:00N 50°19' W 000°09'5 9.2
2018-Feb-24 19:29N 50°18' W 000°16'26 9.7
2018-Feb-24 16:45N 50°10' W 000°55'310.7
2018-Feb-24 16:30N 50°09' W 000°59'511.0
2018-Feb-24 16:00N 50°07' W 001°07'611.3
2018-Feb-24 15:30N 50°06' W 001°16'611.8
2018-Feb-24 15:01N 50°04' W 001°24'612.0
2018-Feb-24 14:30N 50°03' W 001°33'712.4
2018-Feb-24 13:59N 50°01' W 001°43'24111.2
2018-Feb-23 16:23N 47°33' W 006°33'712.0
2018-Feb-23 15:51N 47°27' W 006°37'45411.4
2018-Feb-22 00:02N 40°14' W 009°49'011.4
2018-Feb-22 00:00N 40°14' W 009°49'711.4
2018-Feb-21 23:22N 40°06' W 009°49'411.5
2018-Feb-21 23:00N 40°02' W 009°49'711.4
2018-Feb-21 22:25N 39°55' W 009°49'611.3
2018-Feb-21 21:52N 39°49' W 009°50'411.3
2018-Feb-21 21:30N 39°45' W 009°51'611.5
2018-Feb-21 21:00N 39°39' W 009°51'611.6
2018-Feb-21 20:29N 39°33' W 009°51'1311.6
2018-Feb-21 19:24N 39°21' W 009°51'511.6
2018-Feb-21 19:00N 39°16' W 009°51'611.3
2018-Feb-21 18:30N 39°11' W 009°51'611.4
2018-Feb-21 18:00N 39°05' W 009°51'611.7
2018-Feb-21 17:30N 38°59' W 009°51'611.4
2018-Feb-21 17:00N 38°53' W 009°51'611.5
2018-Feb-21 16:30N 38°48' W 009°51'611.6
2018-Feb-21 16:00N 38°42' W 009°50'611.5
2018-Feb-21 15:30N 38°36' W 009°49'611.3
2018-Feb-21 15:00N 38°31' W 009°47'611.2
2018-Feb-21 14:30N 38°25' W 009°45'611.2
2018-Feb-21 14:00N 38°20' W 009°43'611.0
2018-Feb-21 13:29N 38°14' W 009°41'510.9
2018-Feb-21 12:59N 38°09' W 009°40'611.4
2018-Feb-21 12:30N 38°04' W 009°39'1511.4
2018-Feb-21 11:10N 37°49' W 009°35'3611.5
2018-Feb-21 08:05N 37°14' W 009°24'511.9
2018-Feb-21 07:39N 37°09' W 009°23'212.1
2018-Feb-21 07:30N 37°07' W 009°22'1011.8
2018-Feb-21 06:39N 36°58' W 009°19'19311.5
2018-Feb-20 13:48N 35°60' W 005°30'310.0
2018-Feb-20 13:30N 36°00' W 005°26'5 9.6
2018-Feb-20 13:00N 36°00' W 005°20'21911.9
2018-Feb-19 18:38N 37°14' W 001°04'213.1
2018-Feb-19 18:29N 37°15' W 001°02'713.1
2018-Feb-19 17:57N 37°19' W 000°55'712.9
2018-Feb-19 17:27N 37°24' W 000°49'612.8
2018-Feb-19 17:00N 37°28' W 000°44'912.4
2018-Feb-19 16:18N 37°34' W 000°36'311.3
2018-Feb-19 16:00N 37°36' W 000°33'611.5
2018-Feb-19 15:30N 37°42' W 000°35'612.1
2018-Feb-19 14:59N 37°48' W 000°38'612.5
2018-Feb-19 14:30N 37°54' W 000°40'5 0.1
2018-Feb-18 05:20N 37°58' W 000°41'0 0.0
2018-Feb-17 15:14N 37°58' W 000°41'  
2018-Feb-15 11:02N 37°58' W 000°41'0 0.7
2018-Feb-15 10:53N 37°58' W 000°41'1 2.0
2018-Feb-15 10:30N 37°57' W 000°41'0 0.4
2018-Feb-15 10:00N 37°57' W 000°41'0 0.1
2018-Feb-15 09:30N 37°57' W 000°41'  

Dump ship's entire track history